createdAt,value
2023-02-02T00:01:26.203Z,3.03
2023-02-02T00:06:24.048Z,2.83
2023-02-02T00:08:51.512Z,2.45
2023-02-02T00:11:20.015Z,2.35
2023-02-02T00:13:47.871Z,2.75
2023-02-02T00:18:45.981Z,2.20
2023-02-02T00:21:13.379Z,2.72
2023-02-02T00:23:45.708Z,2.05
2023-02-02T00:26:13.261Z,2.80
2023-02-02T00:28:42.629Z,2.67
2023-02-02T00:31:17.773Z,2.67
2023-02-02T00:33:46.135Z,3.22
2023-02-02T00:36:13.564Z,3.58
2023-02-02T00:38:42.461Z,2.97
2023-02-02T00:41:10.019Z,4.57
2023-02-02T00:43:37.564Z,3.15
2023-02-02T00:46:04.401Z,4.20
2023-02-02T00:48:32.174Z,3.80
2023-02-02T00:50:59.616Z,3.47
2023-02-02T00:53:26.989Z,4.50
2023-02-02T00:55:57.410Z,4.75
2023-02-02T00:58:26.226Z,4.15
2023-02-02T01:00:53.677Z,4.13
2023-02-02T01:03:22.509Z,4.05
2023-02-02T01:05:53.437Z,4.07
2023-02-02T01:08:20.842Z,4.40
2023-02-02T01:10:48.488Z,4.10
2023-02-02T01:13:17.512Z,3.72
2023-02-02T01:15:44.902Z,4.20
2023-02-02T01:18:12.265Z,4.45
2023-02-02T01:20:39.668Z,5.30
2023-02-02T01:23:07.022Z,6.60
2023-02-02T01:25:38.814Z,6.15
2023-02-02T01:28:09.181Z,6.38
2023-02-02T01:30:41.705Z,6.13
2023-02-02T01:33:09.385Z,6.32
2023-02-02T01:38:04.919Z,5.43
2023-02-02T01:40:32.276Z,6.75
2023-02-02T01:42:59.717Z,6.68
2023-02-02T01:45:30.569Z,6.18
2023-02-02T01:48:00.261Z,6.57
2023-02-02T01:50:29.185Z,6.43
2023-02-02T01:52:57.889Z,5.72
2023-02-02T01:55:27.861Z,6.45
2023-02-02T01:57:56.605Z,6.05
2023-02-02T02:00:28.723Z,5.28
2023-02-02T02:02:58.471Z,6.22
2023-02-02T02:05:29.312Z,6.95
2023-02-02T02:07:58.420Z,7.88
2023-02-02T02:10:26.178Z,7.05
2023-02-02T02:13:03.106Z,6.60
2023-02-02T02:15:51.910Z,7.45
2023-02-02T02:18:23.856Z,6.70
2023-02-02T02:21:39.463Z,7.28
2023-02-02T02:24:49.377Z,8.15
2023-02-02T02:27:45.807Z,9.05
2023-02-02T02:30:22.666Z,8.60
2023-02-02T02:32:53.597Z,8.27
2023-02-02T02:35:29.514Z,9.18
2023-02-02T02:38:08.682Z,9.57
2023-02-02T02:40:37.277Z,9.20
2023-02-02T02:43:07.906Z,8.55
2023-02-02T02:45:35.741Z,7.57
2023-02-02T02:48:05.217Z,8.98
2023-02-02T02:50:33.039Z,8.70
2023-02-02T02:53:06.716Z,9.30
2023-02-02T02:55:42.279Z,8.25
2023-02-02T02:58:14.938Z,9.13
2023-02-02T03:00:54.370Z,8.60
2023-02-02T03:03:28.182Z,8.18
2023-02-02T03:06:03.056Z,9.18
2023-02-02T03:08:33.042Z,8.57
2023-02-02T03:11:02.784Z,9.18
2023-02-02T03:13:31.174Z,8.52
2023-02-02T03:15:58.808Z,9.55
2023-02-02T03:18:31.386Z,8.02
2023-02-02T03:20:59.660Z,9.23
2023-02-02T03:25:59.432Z,7.70
2023-02-02T03:28:27.103Z,7.07
2023-02-02T03:30:58.641Z,6.57
2023-02-02T03:33:27.689Z,5.97
2023-02-02T03:35:55.457Z,5.60
2023-02-02T03:38:22.819Z,5.25
2023-02-02T03:40:51.412Z,5.07
2023-02-02T03:43:22.523Z,5.75
2023-02-02T03:45:58.615Z,4.63
2023-02-02T03:48:29.823Z,4.43
2023-02-02T03:51:00.178Z,4.43
2023-02-02T03:53:28.911Z,5.30
2023-02-02T03:55:58.391Z,4.75
2023-02-02T03:58:25.763Z,5.85
2023-02-02T04:00:55.506Z,4.43
2023-02-02T04:03:22.989Z,3.75
2023-02-02T04:05:52.601Z,3.58
2023-02-02T04:08:22.178Z,4.10
2023-02-02T04:10:52.226Z,4.03
2023-02-02T04:13:19.943Z,4.38
2023-02-02T04:15:49.784Z,3.92
2023-02-02T04:18:17.289Z,5.20
2023-02-02T04:20:44.727Z,3.80
2023-02-02T04:23:14.128Z,3.72
2023-02-02T04:25:49.399Z,4.50
2023-02-02T04:28:17.884Z,3.60
2023-02-02T04:30:47.840Z,4.18
2023-02-02T04:33:15.249Z,4.40
2023-02-02T04:35:43.323Z,4.32
2023-02-02T04:38:11.465Z,4.70
2023-02-02T04:40:41.084Z,4.70
2023-02-02T04:43:10.407Z,4.50
2023-02-02T04:45:38.004Z,5.43
2023-02-02T04:48:06.092Z,6.20
2023-02-02T04:50:36.114Z,7.93
2023-02-02T04:53:05.495Z,7.35
2023-02-02T04:55:37.165Z,8.57
2023-02-02T04:58:06.452Z,8.88
2023-02-02T05:00:34.204Z,9.18
2023-02-02T05:03:03.747Z,11.00
2023-02-02T05:05:31.091Z,11.95
2023-02-02T05:08:00.697Z,14.00
2023-02-02T05:10:37.460Z,14.02
2023-02-02T05:13:10.540Z,17.45
2023-02-02T05:15:42.977Z,18.23
2023-02-02T05:18:10.478Z,20.92
2023-02-02T05:20:38.876Z,21.00
2023-02-02T05:23:06.430Z,18.48
2023-02-02T05:25:34.046Z,18.70
2023-02-02T05:28:01.773Z,17.58
2023-02-02T05:30:33.190Z,19.90
2023-02-02T05:33:03.252Z,16.80
2023-02-02T05:35:32.875Z,16.63
2023-02-02T05:38:00.281Z,15.63
2023-02-02T05:40:27.790Z,16.13
2023-02-02T05:42:58.195Z,10.43
2023-02-02T05:45:26.131Z,12.60
2023-02-02T05:47:55.694Z,12.68
2023-02-02T05:50:23.343Z,13.90
2023-02-02T05:53:02.862Z,10.95
2023-02-02T05:57:57.892Z,12.02
2023-02-02T06:00:25.596Z,9.45
2023-02-02T06:02:53.126Z,11.82
2023-02-02T06:05:22.342Z,9.80
2023-02-02T06:07:58.333Z,9.98
2023-02-02T06:10:26.349Z,7.80
2023-02-02T06:12:56.899Z,11.38
2023-02-02T06:15:24.885Z,10.65
2023-02-02T06:17:52.628Z,13.07
2023-02-02T06:20:22.918Z,12.50
2023-02-02T06:22:54.798Z,12.05
2023-02-02T06:25:23.059Z,12.68
2023-02-02T06:27:50.812Z,12.77
2023-02-02T06:30:20.459Z,13.98
2023-02-02T06:32:49.341Z,14.02
2023-02-02T06:35:17.088Z,14.85
2023-02-02T06:37:44.498Z,14.23
2023-02-02T06:40:15.922Z,14.65
2023-02-02T06:42:43.489Z,12.32
2023-02-02T06:45:11.879Z,13.55
2023-02-02T06:47:42.105Z,14.07
2023-02-02T06:50:10.582Z,14.55
2023-02-02T06:52:38.372Z,14.18
2023-02-02T06:57:39.875Z,14.88
2023-02-02T07:00:08.068Z,13.52
2023-02-02T07:02:36.014Z,13.70
2023-02-02T07:05:03.846Z,14.98
2023-02-02T07:07:33.361Z,16.73
2023-02-02T07:10:00.992Z,15.25
2023-02-02T07:12:35.705Z,13.63
2023-02-02T07:15:05.291Z,14.93
2023-02-02T07:17:34.846Z,13.68
2023-02-02T07:20:02.728Z,15.52
2023-02-02T07:22:30.245Z,13.75
2023-02-02T07:24:57.804Z,15.20
2023-02-02T07:27:25.244Z,14.63
2023-02-02T07:29:54.844Z,15.90
2023-02-02T07:32:24.806Z,16.00
2023-02-02T07:34:52.657Z,16.10
2023-02-02T07:37:29.558Z,15.93
2023-02-02T07:39:56.942Z,13.93
2023-02-02T07:42:24.312Z,15.23
2023-02-02T07:44:53.337Z,15.45
2023-02-02T07:47:21.129Z,16.40
2023-02-02T07:49:52.275Z,15.02
2023-02-02T07:52:22.919Z,14.73
2023-02-02T07:54:50.321Z,14.13
2023-02-02T07:57:18.406Z,16.40
2023-02-02T07:59:45.838Z,14.77
2023-02-02T08:02:19.677Z,15.00
2023-02-02T08:04:47.591Z,14.50
2023-02-02T08:09:48.719Z,13.88
2023-02-02T08:12:16.141Z,14.77
2023-02-02T08:14:43.714Z,15.32
2023-02-02T08:17:11.363Z,16.23
2023-02-02T08:19:38.820Z,14.32
2023-02-02T08:22:12.793Z,15.43
2023-02-02T08:24:42.473Z,15.02
2023-02-02T08:27:13.555Z,15.48
2023-02-02T08:29:46.237Z,15.55
2023-02-02T08:32:14.967Z,15.73
2023-02-02T08:34:42.974Z,16.48
2023-02-02T08:39:47.987Z,15.13
2023-02-02T08:42:23.925Z,15.70
2023-02-02T08:46:00.115Z,19.02
2023-02-02T08:47:39.048Z,16.40
2023-02-02T08:50:07.235Z,17.90
2023-02-02T08:52:37.010Z,16.00
2023-02-02T08:55:04.648Z,17.15
2023-02-02T08:57:36.164Z,11.13
2023-02-02T09:00:11.593Z,15.63
2023-02-02T09:02:39.315Z,16.08
2023-02-02T09:05:09.783Z,17.17
2023-02-02T09:07:37.486Z,20.42
2023-02-02T09:10:10.845Z,17.23
2023-02-02T09:12:39.852Z,14.88
2023-02-02T09:15:07.899Z,15.63
2023-02-02T09:17:35.443Z,15.13
2023-02-02T09:20:03.074Z,16.33
2023-02-02T09:22:30.444Z,16.48
2023-02-02T09:24:58.040Z,18.30
2023-02-02T09:27:25.509Z,15.10
2023-02-02T09:29:54.388Z,14.80
2023-02-02T09:32:22.205Z,11.27
2023-02-02T09:34:52.093Z,15.40
2023-02-02T09:37:19.788Z,13.90
2023-02-02T09:39:47.203Z,13.75
2023-02-02T09:42:30.265Z,13.38
2023-02-02T09:45:11.304Z,13.85
2023-02-02T09:47:53.706Z,13.43
2023-02-02T09:50:23.800Z,14.65
2023-02-02T09:52:55.898Z,14.18
2023-02-02T09:55:33.304Z,10.57
2023-02-02T09:58:02.525Z,12.23
2023-02-02T10:00:34.033Z,11.23
2023-02-02T10:03:07.972Z,12.65
2023-02-02T10:05:41.997Z,13.43
2023-02-02T10:08:16.643Z,12.82
2023-02-02T10:10:55.099Z,11.52
2023-02-02T10:13:26.704Z,14.50
2023-02-02T10:16:01.792Z,10.95
2023-02-02T10:18:34.817Z,13.07
2023-02-02T10:21:06.985Z,13.35
2023-02-02T10:23:42.252Z,13.77
2023-02-02T10:26:20.649Z,13.75
2023-02-02T10:29:04.769Z,13.95
2023-02-02T10:31:47.415Z,13.75
2023-02-02T10:34:19.870Z,13.23
2023-02-02T10:37:03.500Z,12.35
2023-02-02T10:39:41.308Z,14.30
2023-02-02T10:42:16.836Z,12.43
2023-02-02T10:45:00.622Z,14.63
2023-02-02T10:47:31.427Z,14.02
2023-02-02T10:50:03.321Z,15.15
2023-02-02T10:52:36.640Z,16.17
2023-02-02T10:55:06.512Z,14.98
2023-02-02T10:57:42.630Z,16.92
2023-02-02T11:00:15.397Z,14.45
2023-02-02T11:02:46.166Z,15.60
2023-02-02T11:05:32.679Z,17.60
2023-02-02T11:08:01.804Z,17.65
2023-02-02T11:10:33.319Z,19.55
2023-02-02T11:13:02.804Z,17.98
2023-02-02T11:15:31.780Z,18.40
2023-02-02T11:18:19.461Z,18.15
2023-02-02T11:20:48.484Z,18.27
2023-02-02T11:23:19.046Z,17.05
2023-02-02T11:25:46.482Z,18.38
2023-02-02T11:28:21.488Z,18.35
2023-02-02T11:30:52.610Z,19.13
2023-02-02T11:33:22.776Z,18.20
2023-02-02T11:35:55.201Z,18.63
2023-02-02T11:38:25.767Z,19.58
2023-02-02T11:40:54.726Z,18.63
2023-02-02T11:43:27.485Z,17.02
2023-02-02T11:45:56.736Z,17.90
2023-02-02T11:48:29.557Z,18.85
2023-02-02T11:50:59.528Z,18.65
2023-02-02T11:53:31.150Z,19.77
2023-02-02T11:56:03.340Z,18.52
2023-02-02T11:58:48.809Z,19.90
2023-02-02T12:01:31.782Z,19.98
2023-02-02T12:04:05.017Z,17.30
2023-02-02T12:06:37.206Z,17.08
2023-02-02T12:09:12.927Z,20.15
2023-02-02T12:11:48.579Z,16.85
2023-02-02T12:14:24.353Z,16.50
2023-02-02T12:16:58.095Z,14.93
2023-02-02T12:19:46.378Z,17.05
2023-02-02T12:22:21.744Z,16.00
2023-02-02T12:24:56.000Z,15.45
2023-02-02T12:27:30.040Z,15.45
2023-02-02T12:30:27.797Z,14.70
2023-02-02T12:33:01.604Z,13.18
2023-02-02T12:35:38.253Z,15.55
2023-02-02T12:38:12.020Z,13.93
2023-02-02T12:40:45.850Z,13.45
2023-02-02T12:43:19.920Z,12.77
2023-02-02T12:46:03.499Z,13.35
2023-02-02T12:48:38.596Z,14.80
2023-02-02T12:51:17.832Z,15.75
2023-02-02T12:54:35.173Z,13.35
2023-02-02T12:56:49.914Z,12.90
2023-02-02T12:59:24.716Z,11.70
2023-02-02T13:01:59.087Z,12.38
2023-02-02T13:04:35.715Z,13.20
2023-02-02T13:07:20.755Z,13.90
2023-02-02T13:09:51.967Z,12.57
2023-02-02T13:12:22.819Z,12.00
2023-02-02T13:14:52.487Z,11.32
2023-02-02T13:17:28.186Z,14.00
2023-02-02T13:20:02.102Z,13.07
2023-02-02T13:22:35.513Z,11.73
2023-02-02T13:25:08.777Z,13.10
2023-02-02T13:27:38.747Z,14.15
2023-02-02T13:30:13.419Z,14.48
2023-02-02T13:32:42.856Z,14.35
2023-02-02T13:35:17.323Z,13.57
2023-02-02T13:37:48.946Z,16.40
2023-02-02T13:40:21.707Z,12.25
2023-02-02T13:42:51.611Z,14.68
2023-02-02T13:45:36.567Z,16.45
2023-02-02T13:48:12.198Z,15.43
2023-02-02T13:50:46.596Z,18.52
2023-02-02T13:53:27.079Z,17.30
2023-02-02T13:56:04.540Z,18.65
2023-02-02T13:58:45.419Z,17.45
2023-02-02T14:01:14.030Z,17.00
2023-02-02T14:03:42.715Z,18.33
2023-02-02T14:06:16.297Z,18.40
2023-02-02T14:08:52.331Z,17.02
2023-02-02T14:11:25.810Z,17.85
2023-02-02T14:14:12.157Z,17.85
2023-02-02T14:16:50.331Z,17.40
2023-02-02T14:19:48.134Z,15.90
2023-02-02T14:22:21.536Z,18.05
2023-02-02T14:24:51.431Z,15.90
2023-02-02T14:27:37.576Z,15.88
2023-02-02T14:30:17.477Z,16.08
2023-02-02T14:32:46.518Z,15.30
2023-02-02T14:35:32.590Z,13.43
2023-02-02T14:38:08.009Z,14.50
2023-02-02T14:40:42.471Z,12.95
2023-02-02T14:43:40.495Z,13.32
2023-02-02T14:46:23.267Z,13.45
2023-02-02T14:49:07.791Z,13.13
2023-02-02T14:51:45.853Z,14.93
2023-02-02T14:54:20.924Z,12.90
2023-02-02T14:56:51.874Z,14.90
2023-02-02T14:59:20.953Z,15.82
2023-02-02T15:01:57.461Z,16.40
2023-02-02T15:04:25.928Z,16.08
2023-02-02T15:06:53.898Z,18.48
2023-02-02T15:09:42.347Z,16.83
2023-02-02T15:12:17.088Z,17.45
2023-02-02T15:14:46.518Z,15.63
2023-02-02T15:17:21.306Z,17.52
2023-02-02T15:19:53.765Z,16.65
2023-02-02T15:22:26.699Z,16.27
2023-02-02T15:24:54.768Z,14.18
2023-02-02T15:27:24.806Z,15.00
2023-02-02T15:29:57.085Z,13.85
2023-02-02T15:32:28.324Z,16.02
2023-02-02T15:35:01.857Z,16.08
2023-02-02T15:37:31.830Z,16.15
2023-02-02T15:40:02.304Z,20.05
2023-02-02T15:42:58.771Z,17.98
2023-02-02T15:45:34.679Z,19.65
2023-02-02T15:48:06.552Z,20.20
2023-02-02T15:50:34.133Z,24.60
2023-02-02T15:53:05.048Z,28.13
2023-02-02T15:55:34.063Z,29.00
2023-02-02T15:58:02.671Z,28.40
2023-02-02T16:00:35.664Z,32.08
2023-02-02T16:03:07.516Z,29.90
2023-02-02T16:05:45.638Z,32.20
2023-02-02T16:08:17.123Z,31.40
2023-02-02T16:10:46.739Z,31.88
2023-02-02T16:13:25.699Z,29.38
2023-02-02T16:15:57.051Z,32.83
2023-02-02T16:18:26.129Z,30.77
2023-02-02T16:20:54.948Z,32.63
2023-02-02T16:23:26.423Z,31.00
2023-02-02T16:25:57.197Z,30.58
2023-02-02T16:28:24.853Z,31.98
2023-02-02T16:30:53.308Z,32.67
2023-02-02T16:33:38.705Z,32.55
2023-02-02T16:36:24.367Z,30.75
2023-02-02T16:38:53.024Z,28.80
2023-02-02T16:43:48.726Z,25.42
2023-02-02T16:46:18.799Z,29.77
2023-02-02T16:49:01.095Z,32.53
2023-02-02T16:51:29.486Z,33.40
2023-02-02T16:53:59.800Z,30.30
2023-02-02T16:56:37.395Z,32.80
2023-02-02T16:59:16.837Z,27.73
2023-02-02T17:01:48.919Z,26.40
2023-02-02T17:04:20.456Z,27.17
2023-02-02T17:06:52.859Z,27.35
2023-02-02T17:09:41.807Z,29.70
2023-02-02T17:12:33.245Z,31.98
2023-02-02T17:15:05.009Z,32.85
2023-02-02T17:17:32.449Z,30.42
2023-02-02T17:20:05.147Z,30.17
2023-02-02T17:22:37.814Z,32.25
2023-02-02T17:25:05.732Z,32.20
2023-02-02T17:27:36.617Z,28.80
2023-02-02T17:30:08.241Z,31.35
2023-02-02T17:32:35.667Z,29.25
2023-02-02T17:35:09.757Z,30.15
2023-02-02T17:37:37.152Z,31.67
2023-02-02T17:40:04.802Z,33.22
2023-02-02T17:42:32.455Z,29.25
2023-02-02T17:44:59.911Z,32.65
2023-02-02T17:47:29.223Z,33.30
2023-02-02T17:49:56.616Z,32.92
2023-02-02T17:52:25.443Z,28.33
2023-02-02T17:54:53.041Z,31.13
2023-02-02T17:57:20.468Z,31.27
2023-02-02T17:59:47.844Z,25.65
2023-02-02T18:02:18.775Z,31.58
2023-02-02T18:04:46.143Z,19.48
2023-02-02T18:07:16.059Z,24.77
2023-02-02T18:09:47.838Z,26.52
2023-02-02T18:12:15.407Z,28.90
2023-02-02T18:14:42.956Z,26.50
2023-02-02T18:17:12.982Z,27.40
2023-02-02T18:19:44.755Z,26.10
2023-02-02T18:22:21.370Z,24.63
2023-02-02T18:24:50.439Z,27.70
2023-02-02T18:27:20.104Z,26.67
2023-02-02T18:29:47.746Z,27.48
2023-02-02T18:32:16.003Z,22.17
2023-02-02T18:34:43.494Z,27.00
2023-02-02T18:37:13.871Z,21.02
2023-02-02T18:39:48.435Z,20.35
2023-02-02T18:42:17.265Z,21.13
2023-02-02T18:44:45.602Z,22.67
2023-02-02T18:47:13.155Z,20.33
2023-02-02T18:49:40.556Z,19.60
2023-02-02T18:52:11.072Z,19.80
2023-02-02T18:54:38.604Z,17.25
2023-02-02T18:57:08.089Z,18.75
2023-02-02T18:59:36.926Z,18.33
2023-02-02T19:02:04.337Z,18.85
2023-02-02T19:04:31.905Z,17.45
2023-02-02T19:07:16.785Z,18.67
2023-02-02T19:09:44.221Z,16.40
2023-02-02T19:12:13.153Z,19.00
2023-02-02T19:14:43.348Z,20.55
2023-02-02T19:17:17.835Z,20.52
2023-02-02T19:19:45.241Z,19.40
2023-02-02T19:22:18.081Z,21.92
2023-02-02T19:24:45.495Z,19.90
2023-02-02T19:27:16.685Z,20.85
2023-02-02T19:29:45.970Z,24.75
2023-02-02T19:32:14.864Z,25.88
2023-02-02T19:34:42.551Z,23.52
2023-02-02T19:37:22.036Z,30.17
2023-02-02T19:39:49.441Z,32.38
2023-02-02T19:42:16.843Z,31.52
2023-02-02T19:44:45.719Z,30.80
2023-02-02T19:47:20.055Z,31.77
2023-02-02T19:49:54.521Z,29.85
2023-02-02T19:52:24.330Z,27.58
2023-02-02T19:54:52.611Z,29.67
2023-02-02T19:57:25.251Z,30.35
2023-02-02T19:59:59.324Z,31.00
2023-02-02T20:02:34.774Z,31.27
2023-02-02T20:05:03.751Z,29.52
2023-02-02T20:07:31.366Z,30.65
2023-02-02T20:10:00.963Z,29.13
2023-02-02T20:12:29.416Z,28.50
2023-02-02T20:14:58.186Z,31.45
2023-02-02T20:17:34.636Z,30.35
2023-02-02T20:20:02.209Z,28.38
2023-02-02T20:22:32.625Z,32.60
2023-02-02T20:25:05.610Z,34.00
2023-02-02T20:27:34.211Z,36.92
2023-02-02T20:30:18.437Z,39.08
2023-02-02T20:32:49.520Z,37.15
2023-02-02T20:35:23.109Z,40.90
2023-02-02T20:37:50.817Z,39.33
2023-02-02T20:40:28.414Z,40.20
2023-02-02T20:45:25.438Z,36.80
2023-02-02T20:47:54.208Z,38.42
2023-02-02T20:50:22.483Z,38.45
2023-02-02T20:52:53.479Z,39.05
2023-02-02T20:55:20.851Z,36.35
2023-02-02T20:57:48.243Z,33.55
2023-02-02T21:00:17.235Z,37.65
2023-02-02T21:02:44.790Z,33.58
2023-02-02T21:05:17.580Z,36.17
2023-02-02T21:07:44.924Z,38.15
2023-02-02T21:10:12.645Z,38.85
2023-02-02T21:12:40.029Z,35.92
2023-02-02T21:15:07.892Z,37.08
2023-02-02T21:17:36.887Z,36.78
2023-02-02T21:20:04.360Z,36.40
2023-02-02T21:22:33.296Z,34.33
2023-02-02T21:25:03.547Z,35.67
2023-02-02T21:27:31.012Z,35.90
2023-02-02T21:29:58.483Z,36.05
2023-02-02T21:32:25.916Z,34.78
2023-02-02T21:34:53.306Z,34.20
2023-02-02T21:37:20.632Z,34.00
2023-02-02T21:39:51.236Z,34.65
2023-02-02T21:42:19.491Z,33.00
2023-02-02T21:44:52.368Z,29.20
2023-02-02T21:47:26.660Z,27.42
2023-02-02T21:49:55.398Z,25.45
2023-02-02T21:52:24.330Z,29.73
2023-02-02T21:54:53.031Z,30.45
2023-02-02T21:57:21.666Z,28.42
2023-02-02T21:59:54.395Z,26.23
2023-02-02T22:02:36.645Z,30.90
2023-02-02T22:05:12.051Z,27.88
2023-02-02T22:07:39.930Z,28.40
2023-02-02T22:10:22.105Z,26.67
2023-02-02T22:12:49.476Z,27.15
2023-02-02T22:15:19.225Z,26.67
2023-02-02T22:17:46.945Z,27.02
2023-02-02T22:20:19.798Z,27.13
2023-02-02T22:22:47.764Z,26.08
2023-02-02T22:27:46.284Z,24.38
2023-02-02T22:30:18.289Z,25.92
2023-02-02T22:32:45.708Z,25.88
2023-02-02T22:35:13.096Z,26.63
2023-02-02T22:37:40.468Z,26.00
2023-02-02T22:40:12.653Z,25.98
2023-02-02T22:42:40.367Z,26.33
2023-02-02T22:45:10.991Z,26.25
2023-02-02T22:47:38.405Z,25.98
2023-02-02T22:50:09.065Z,26.42
2023-02-02T22:52:36.424Z,25.35
2023-02-02T22:55:04.127Z,25.92
2023-02-02T22:57:31.556Z,25.73
2023-02-02T23:00:02.145Z,24.67
2023-02-02T23:02:35.665Z,25.02
2023-02-02T23:05:03.152Z,23.33
2023-02-02T23:07:40.487Z,26.02
2023-02-02T23:10:08.661Z,27.20
2023-02-02T23:12:37.810Z,23.33
2023-02-02T23:15:16.497Z,26.35
2023-02-02T23:17:45.426Z,26.02
2023-02-02T23:20:14.167Z,24.52
2023-02-02T23:22:44.794Z,23.70
2023-02-02T23:25:14.356Z,23.95
2023-02-02T23:27:47.794Z,25.08
2023-02-02T23:30:17.581Z,23.63
2023-02-02T23:32:47.177Z,22.10
2023-02-02T23:35:16.570Z,24.42
2023-02-02T23:37:44.002Z,23.70
2023-02-02T23:40:15.223Z,26.65
2023-02-02T23:42:45.743Z,24.30
2023-02-02T23:45:16.638Z,24.20
2023-02-02T23:47:46.971Z,20.73
2023-02-02T23:50:18.291Z,25.05
2023-02-02T23:52:50.256Z,24.88
2023-02-02T23:55:24.015Z,23.35
2023-02-02T23:57:53.439Z,24.00
